Alton, Kansas
Current Conditions -  °F | °C
As of 6:53 PM on Tuesday 27 Jan 2015 (Local Time) from KRSL Reporting Station
Clear Clear  
Wind Chill: 15°   Ceiling: Unl
Heat Index: 15°   Visibility: 10mi
Dew Point: -1°   Wind: 13mph
Humidity: 33%   Direction: 200°SSW
Pressure: 29.92"   Gusts: NA
Location:  39.47°N, 98.95°W
Report Text: KRSL 280053Z AUTO 20011KT 10SM CLR 15/M01 A2992 RMK AO2 SLP136 T01501011
Loading
Personal Weather Stations






























Interactive Weather Map New forecast layout! Learn more

10-Day Weather Forecast

Advertisements
Track Severe Weather on mobile